sensor_id;sensor_type;location;lat;lon;timestamp;temperature;humidity
8420;DHT22;4247;48.550;8.822;2024-03-29T00:01:17;4.50;99.90
8420;DHT22;4247;48.550;8.822;2024-03-29T00:03:43;4.50;99.90
8420;DHT22;4247;48.550;8.822;2024-03-29T00:06:09;4.50;99.90
8420;DHT22;4247;48.550;8.822;2024-03-29T00:08:35;4.50;99.90
8420;DHT22;4247;48.550;8.822;2024-03-29T00:11:01;4.40;99.90
8420;DHT22;4247;48.550;8.822;2024-03-29T00:13:28;4.40;99.90
8420;DHT22;4247;48.550;8.822;2024-03-29T00:15:54;4.30;99.90
8420;DHT22;4247;48.550;8.822;2024-03-29T00:18:20;4.30;99.90
8420;DHT22;4247;48.550;8.822;2024-03-29T00:20:47;4.30;99.90
8420;DHT22;4247;48.550;8.822;2024-03-29T00:23:12;4.30;99.90
8420;DHT22;4247;48.550;8.822;2024-03-29T00:25:38;4.30;99.90
8420;DHT22;4247;48.550;8.822;2024-03-29T00:28:05;4.20;99.90
8420;DHT22;4247;48.550;8.822;2024-03-29T00:30:32;4.20;99.90
8420;DHT22;4247;48.550;8.822;2024-03-29T00:32:58;4.20;99.90
8420;DHT22;4247;48.550;8.822;2024-03-29T00:35:24;4.20;99.90
8420;DHT22;4247;48.550;8.822;2024-03-29T00:37:50;4.20;99.90
8420;DHT22;4247;48.550;8.822;2024-03-29T00:40:16;4.20;99.90
8420;DHT22;4247;48.550;8.822;2024-03-29T00:42:42;4.20;99.90
8420;DHT22;4247;48.550;8.822;2024-03-29T00:45:08;4.20;99.90
8420;DHT22;4247;48.550;8.822;2024-03-29T00:47:36;4.20;99.90
8420;DHT22;4247;48.550;8.822;2024-03-29T00:50:02;4.20;99.90
8420;DHT22;4247;48.550;8.822;2024-03-29T00:52:27;4.20;99.90
8420;DHT22;4247;48.550;8.822;2024-03-29T00:54:53;4.20;99.90
8420;DHT22;4247;48.550;8.822;2024-03-29T00:57:19;4.20;99.90
8420;DHT22;4247;48.550;8.822;2024-03-29T00:59:46;4.20;99.90
8420;DHT22;4247;48.550;8.822;2024-03-29T01:02:12;4.20;99.90
8420;DHT22;4247;48.550;8.822;2024-03-29T01:04:39;4.20;99.90
8420;DHT22;4247;48.550;8.822;2024-03-29T01:07:05;4.20;99.90
8420;DHT22;4247;48.550;8.822;2024-03-29T01:09:31;4.10;99.90
8420;DHT22;4247;48.550;8.822;2024-03-29T01:11:57;4.10;99.90
8420;DHT22;4247;48.550;8.822;2024-03-29T01:14:23;4.10;99.90
8420;DHT22;4247;48.550;8.822;2024-03-29T01:16:49;4.20;99.90
8420;DHT22;4247;48.550;8.822;2024-03-29T01:19:15;4.20;99.90
8420;DHT22;4247;48.550;8.822;2024-03-29T01:21:42;4.20;99.90
8420;DHT22;4247;48.550;8.822;2024-03-29T01:24:08;4.20;99.90
8420;DHT22;4247;48.550;8.822;2024-03-29T01:26:34;4.20;99.90
8420;DHT22;4247;48.550;8.822;2024-03-29T01:29:00;4.20;99.90
8420;DHT22;4247;48.550;8.822;2024-03-29T01:31:26;4.30;99.90
8420;DHT22;4247;48.550;8.822;2024-03-29T01:33:51;4.30;99.90
8420;DHT22;4247;48.550;8.822;2024-03-29T01:36:17;4.30;99.90
8420;DHT22;4247;48.550;8.822;2024-03-29T01:38:45;4.30;99.90
8420;DHT22;4247;48.550;8.822;2024-03-29T01:41:11;4.40;99.90
8420;DHT22;4247;48.550;8.822;2024-03-29T01:43:37;4.40;99.90
8420;DHT22;4247;48.550;8.822;2024-03-29T01:46:04;4.40;99.90
8420;DHT22;4247;48.550;8.822;2024-03-29T01:48:34;4.50;99.90
8420;DHT22;4247;48.550;8.822;2024-03-29T01:51:01;4.50;99.90
8420;DHT22;4247;48.550;8.822;2024-03-29T01:53:28;4.50;99.90
8420;DHT22;4247;48.550;8.822;2024-03-29T01:55:58;4.50;99.90
8420;DHT22;4247;48.550;8.822;2024-03-29T01:58:26;4.60;99.90
8420;DHT22;4247;48.550;8.822;2024-03-29T02:00:55;4.60;99.90
8420;DHT22;4247;48.550;8.822;2024-03-29T02:03:23;4.60;99.90
8420;DHT22;4247;48.550;8.822;2024-03-29T02:05:50;4.70;99.90
8420;DHT22;4247;48.550;8.822;2024-03-29T02:08:17;4.70;99.90
8420;DHT22;4247;48.550;8.822;2024-03-29T02:10:47;4.70;99.90
8420;DHT22;4247;48.550;8.822;2024-03-29T02:13:14;4.70;99.90
8420;DHT22;4247;48.550;8.822;2024-03-29T02:15:41;4.80;99.90
8420;DHT22;4247;48.550;8.822;2024-03-29T02:18:08;4.80;99.90
8420;DHT22;4247;48.550;8.822;2024-03-29T02:20:36;4.80;99.90
8420;DHT22;4247;48.550;8.822;2024-03-29T02:23:06;4.90;99.90
8420;DHT22;4247;48.550;8.822;2024-03-29T02:25:36;4.90;99.90
8420;DHT22;4247;48.550;8.822;2024-03-29T02:28:03;4.90;99.90
8420;DHT22;4247;48.550;8.822;2024-03-29T02:30:30;5.00;99.90
8420;DHT22;4247;48.550;8.822;2024-03-29T02:32:57;5.00;99.90
8420;DHT22;4247;48.550;8.822;2024-03-29T02:35:24;5.00;99.90
8420;DHT22;4247;48.550;8.822;2024-03-29T02:37:51;5.10;99.90
8420;DHT22;4247;48.550;8.822;2024-03-29T02:40:18;5.10;99.90
8420;DHT22;4247;48.550;8.822;2024-03-29T02:42:47;5.10;99.90
8420;DHT22;4247;48.550;8.822;2024-03-29T02:45:13;5.10;99.90
8420;DHT22;4247;48.550;8.822;2024-03-29T02:47:40;5.10;99.90
8420;DHT22;4247;48.550;8.822;2024-03-29T02:50:09;5.10;99.90
8420;DHT22;4247;48.550;8.822;2024-03-29T02:52:35;5.10;99.90
8420;DHT22;4247;48.550;8.822;2024-03-29T02:55:03;5.10;99.90
8420;DHT22;4247;48.550;8.822;2024-03-29T02:57:28;5.10;99.90
8420;DHT22;4247;48.550;8.822;2024-03-29T02:59:57;5.10;99.90
8420;DHT22;4247;48.550;8.822;2024-03-29T03:02:22;5.20;99.90
8420;DHT22;4247;48.550;8.822;2024-03-29T03:04:49;5.20;99.90
8420;DHT22;4247;48.550;8.822;2024-03-29T03:07:15;5.20;99.90
8420;DHT22;4247;48.550;8.822;2024-03-29T03:09:59;5.20;99.90
8420;DHT22;4247;48.550;8.822;2024-03-29T03:12:43;5.30;99.90
8420;DHT22;4247;48.550;8.822;2024-03-29T03:15:12;5.30;99.90
8420;DHT22;4247;48.550;8.822;2024-03-29T03:17:38;5.30;99.90
8420;DHT22;4247;48.550;8.822;2024-03-29T03:20:06;5.30;99.90
8420;DHT22;4247;48.550;8.822;2024-03-29T03:22:32;5.40;99.90
8420;DHT22;4247;48.550;8.822;2024-03-29T03:24:59;5.50;99.90
8420;DHT22;4247;48.550;8.822;2024-03-29T03:27:24;5.50;99.90
8420;DHT22;4247;48.550;8.822;2024-03-29T03:29:51;5.60;99.90
8420;DHT22;4247;48.550;8.822;2024-03-29T03:32:20;5.60;99.90
8420;DHT22;4247;48.550;8.822;2024-03-29T03:34:45;5.70;99.90
8420;DHT22;4247;48.550;8.822;2024-03-29T03:37:12;5.70;99.90
8420;DHT22;4247;48.550;8.822;2024-03-29T03:39:38;5.80;99.90
8420;DHT22;4247;48.550;8.822;2024-03-29T03:42:05;5.80;99.90
8420;DHT22;4247;48.550;8.822;2024-03-29T03:44:31;5.90;99.90
8420;DHT22;4247;48.550;8.822;2024-03-29T03:46:57;5.90;99.90
8420;DHT22;4247;48.550;8.822;2024-03-29T03:49:25;5.90;99.90
8420;DHT22;4247;48.550;8.822;2024-03-29T03:51:51;6.00;99.90
8420;DHT22;4247;48.550;8.822;2024-03-29T03:54:17;6.00;99.90
8420;DHT22;4247;48.550;8.822;2024-03-29T03:56:44;6.00;99.90
8420;DHT22;4247;48.550;8.822;2024-03-29T03:59:10;6.00;99.90
8420;DHT22;4247;48.550;8.822;2024-03-29T04:01:37;6.00;99.90
8420;DHT22;4247;48.550;8.822;2024-03-29T04:04:02;6.10;99.90
8420;DHT22;4247;48.550;8.822;2024-03-29T04:06:30;6.10;99.90
8420;DHT22;4247;48.550;8.822;2024-03-29T04:08:57;6.00;99.90
8420;DHT22;4247;48.550;8.822;2024-03-29T04:11:24;6.10;99.90
8420;DHT22;4247;48.550;8.822;2024-03-29T04:13:50;6.00;99.90
8420;DHT22;4247;48.550;8.822;2024-03-29T04:16:16;6.00;99.90
8420;DHT22;4247;48.550;8.822;2024-03-29T04:18:42;6.00;99.90
8420;DHT22;4247;48.550;8.822;2024-03-29T04:21:09;6.00;99.90
8420;DHT22;4247;48.550;8.822;2024-03-29T04:23:36;6.00;99.90
8420;DHT22;4247;48.550;8.822;2024-03-29T04:26:03;6.00;99.90
8420;DHT22;4247;48.550;8.822;2024-03-29T04:28:29;6.00;99.90
8420;DHT22;4247;48.550;8.822;2024-03-29T04:30:57;6.00;99.90
8420;DHT22;4247;48.550;8.822;2024-03-29T04:33:23;6.00;99.90
8420;DHT22;4247;48.550;8.822;2024-03-29T04:35:53;6.10;99.90
8420;DHT22;4247;48.550;8.822;2024-03-29T04:38:19;6.10;99.90
8420;DHT22;4247;48.550;8.822;2024-03-29T04:40:48;6.10;99.90
8420;DHT22;4247;48.550;8.822;2024-03-29T04:43:16;6.10;99.90
8420;DHT22;4247;48.550;8.822;2024-03-29T04:45:43;6.10;99.90
8420;DHT22;4247;48.550;8.822;2024-03-29T04:48:10;6.20;99.90
8420;DHT22;4247;48.550;8.822;2024-03-29T04:50:37;6.20;99.90
8420;DHT22;4247;48.550;8.822;2024-03-29T04:53:04;6.20;99.90
8420;DHT22;4247;48.550;8.822;2024-03-29T04:55:31;6.20;99.90
8420;DHT22;4247;48.550;8.822;2024-03-29T04:57:59;6.20;99.90
8420;DHT22;4247;48.550;8.822;2024-03-29T05:00:26;6.20;99.90
8420;DHT22;4247;48.550;8.822;2024-03-29T05:02:53;6.20;99.90
8420;DHT22;4247;48.550;8.822;2024-03-29T05:05:20;6.20;99.90
8420;DHT22;4247;48.550;8.822;2024-03-29T05:07:47;6.20;99.90
8420;DHT22;4247;48.550;8.822;2024-03-29T05:10:13;6.10;99.90
8420;DHT22;4247;48.550;8.822;2024-03-29T05:12:42;6.20;99.90
8420;DHT22;4247;48.550;8.822;2024-03-29T05:15:10;6.20;99.90
8420;DHT22;4247;48.550;8.822;2024-03-29T05:17:37;6.20;99.90
8420;DHT22;4247;48.550;8.822;2024-03-29T05:20:07;6.20;99.90
8420;DHT22;4247;48.550;8.822;2024-03-29T05:22:34;6.20;99.90
8420;DHT22;4247;48.550;8.822;2024-03-29T05:25:01;6.20;99.90
8420;DHT22;4247;48.550;8.822;2024-03-29T05:27:28;6.10;99.90
8420;DHT22;4247;48.550;8.822;2024-03-29T05:29:54;6.10;99.90
8420;DHT22;4247;48.550;8.822;2024-03-29T05:32:23;6.10;99.90
8420;DHT22;4247;48.550;8.822;2024-03-29T05:34:49;6.10;99.90
8420;DHT22;4247;48.550;8.822;2024-03-29T05:37:16;6.10;99.90
8420;DHT22;4247;48.550;8.822;2024-03-29T05:39:44;6.10;99.90
8420;DHT22;4247;48.550;8.822;2024-03-29T05:42:11;6.10;99.90
8420;DHT22;4247;48.550;8.822;2024-03-29T05:44:38;6.20;99.90
8420;DHT22;4247;48.550;8.822;2024-03-29T05:47:05;6.30;99.90
8420;DHT22;4247;48.550;8.822;2024-03-29T05:49:34;6.40;99.90
8420;DHT22;4247;48.550;8.822;2024-03-29T05:52:01;6.40;99.90
8420;DHT22;4247;48.550;8.822;2024-03-29T05:54:27;6.50;99.90
8420;DHT22;4247;48.550;8.822;2024-03-29T05:56:54;6.60;99.90
8420;DHT22;4247;48.550;8.822;2024-03-29T05:59:21;6.70;99.90
8420;DHT22;4247;48.550;8.822;2024-03-29T06:01:48;6.80;99.90
8420;DHT22;4247;48.550;8.822;2024-03-29T06:04:14;6.90;99.90
8420;DHT22;4247;48.550;8.822;2024-03-29T06:06:47;7.00;99.90
8420;DHT22;4247;48.550;8.822;2024-03-29T06:09:13;7.10;99.90
8420;DHT22;4247;48.550;8.822;2024-03-29T06:11:41;7.20;99.90
8420;DHT22;4247;48.550;8.822;2024-03-29T06:14:08;7.20;99.90
8420;DHT22;4247;48.550;8.822;2024-03-29T06:16:52;7.30;99.90
8420;DHT22;4247;48.550;8.822;2024-03-29T06:19:36;7.30;99.90
8420;DHT22;4247;48.550;8.822;2024-03-29T06:22:05;7.30;99.90
8420;DHT22;4247;48.550;8.822;2024-03-29T06:24:34;7.40;99.90
8420;DHT22;4247;48.550;8.822;2024-03-29T06:27:01;7.40;99.90
8420;DHT22;4247;48.550;8.822;2024-03-29T06:29:28;7.50;99.90
8420;DHT22;4247;48.550;8.822;2024-03-29T06:31:55;7.50;99.90
8420;DHT22;4247;48.550;8.822;2024-03-29T06:34:21;7.60;99.90
8420;DHT22;4247;48.550;8.822;2024-03-29T06:36:48;7.60;99.90
8420;DHT22;4247;48.550;8.822;2024-03-29T06:39:16;7.60;99.90
8420;DHT22;4247;48.550;8.822;2024-03-29T06:41:43;7.70;99.90
8420;DHT22;4247;48.550;8.822;2024-03-29T06:44:10;7.70;99.90
8420;DHT22;4247;48.550;8.822;2024-03-29T06:46:37;7.80;99.90
8420;DHT22;4247;48.550;8.822;2024-03-29T06:49:04;7.80;99.90
8420;DHT22;4247;48.550;8.822;2024-03-29T06:51:31;7.80;99.90
8420;DHT22;4247;48.550;8.822;2024-03-29T06:53:57;7.80;99.90
8420;DHT22;4247;48.550;8.822;2024-03-29T06:56:26;7.80;99.90
8420;DHT22;4247;48.550;8.822;2024-03-29T06:58:53;7.80;99.90
8420;DHT22;4247;48.550;8.822;2024-03-29T07:01:20;7.90;99.90
8420;DHT22;4247;48.550;8.822;2024-03-29T07:03:47;7.90;99.90
8420;DHT22;4247;48.550;8.822;2024-03-29T07:06:14;7.90;99.90
8420;DHT22;4247;48.550;8.822;2024-03-29T07:08:40;7.90;99.90
8420;DHT22;4247;48.550;8.822;2024-03-29T07:11:07;8.00;99.90
8420;DHT22;4247;48.550;8.822;2024-03-29T07:13:36;8.00;99.90
8420;DHT22;4247;48.550;8.822;2024-03-29T07:16:04;8.00;99.90
8420;DHT22;4247;48.550;8.822;2024-03-29T07:18:32;8.00;99.90
8420;DHT22;4247;48.550;8.822;2024-03-29T07:20:59;8.00;99.90
8420;DHT22;4247;48.550;8.822;2024-03-29T07:23:26;8.00;99.90
8420;DHT22;4247;48.550;8.822;2024-03-29T07:26:00;8.10;99.90
8420;DHT22;4247;48.550;8.822;2024-03-29T07:28:27;8.00;99.90
8420;DHT22;4247;48.550;8.822;2024-03-29T07:30:55;8.10;99.90
8420;DHT22;4247;48.550;8.822;2024-03-29T07:33:23;8.10;99.90
8420;DHT22;4247;48.550;8.822;2024-03-29T07:35:52;8.00;99.90
8420;DHT22;4247;48.550;8.822;2024-03-29T07:38:19;8.00;99.90
8420;DHT22;4247;48.550;8.822;2024-03-29T07:40:46;8.00;99.90
8420;DHT22;4247;48.550;8.822;2024-03-29T07:43:13;8.00;99.90
8420;DHT22;4247;48.550;8.822;2024-03-29T07:45:40;8.00;99.90
8420;DHT22;4247;48.550;8.822;2024-03-29T07:48:10;8.00;99.90
8420;DHT22;4247;48.550;8.822;2024-03-29T07:50:37;8.00;99.90
8420;DHT22;4247;48.550;8.822;2024-03-29T07:53:04;8.00;99.90
8420;DHT22;4247;48.550;8.822;2024-03-29T07:55:31;7.90;99.90
8420;DHT22;4247;48.550;8.822;2024-03-29T07:57:57;7.90;99.90
8420;DHT22;4247;48.550;8.822;2024-03-29T08:00:25;7.90;99.90
8420;DHT22;4247;48.550;8.822;2024-03-29T08:02:52;7.90;99.90
8420;DHT22;4247;48.550;8.822;2024-03-29T08:05:21;8.00;99.90
8420;DHT22;4247;48.550;8.822;2024-03-29T08:07:48;8.00;99.90
8420;DHT22;4247;48.550;8.822;2024-03-29T08:10:14;8.00;99.90
8420;DHT22;4247;48.550;8.822;2024-03-29T08:12:41;8.00;99.90
8420;DHT22;4247;48.550;8.822;2024-03-29T08:15:08;8.10;99.90
8420;DHT22;4247;48.550;8.822;2024-03-29T08:17:36;8.10;99.90
8420;DHT22;4247;48.550;8.822;2024-03-29T08:20:03;8.10;99.90
8420;DHT22;4247;48.550;8.822;2024-03-29T08:22:31;8.20;99.90
8420;DHT22;4247;48.550;8.822;2024-03-29T08:24:59;8.20;99.90
8420;DHT22;4247;48.550;8.822;2024-03-29T08:27:26;8.30;99.90
8420;DHT22;4247;48.550;8.822;2024-03-29T08:29:53;8.30;99.90
8420;DHT22;4247;48.550;8.822;2024-03-29T08:32:20;8.40;99.90
8420;DHT22;4247;48.550;8.822;2024-03-29T08:34:47;8.40;99.90
8420;DHT22;4247;48.550;8.822;2024-03-29T08:37:14;8.50;99.90
8420;DHT22;4247;48.550;8.822;2024-03-29T08:39:42;8.50;99.90
8420;DHT22;4247;48.550;8.822;2024-03-29T08:42:09;8.60;99.90
8420;DHT22;4247;48.550;8.822;2024-03-29T08:44:37;8.70;99.90
8420;DHT22;4247;48.550;8.822;2024-03-29T08:47:05;8.70;99.90
8420;DHT22;4247;48.550;8.822;2024-03-29T08:49:32;8.70;99.90
8420;DHT22;4247;48.550;8.822;2024-03-29T08:51:58;8.70;99.90
8420;DHT22;4247;48.550;8.822;2024-03-29T08:54:30;8.80;99.90
8420;DHT22;4247;48.550;8.822;2024-03-29T08:56:58;8.80;99.90
8420;DHT22;4247;48.550;8.822;2024-03-29T08:59:27;8.90;99.90
8420;DHT22;4247;48.550;8.822;2024-03-29T09:02:03;8.90;99.90
8420;DHT22;4247;48.550;8.822;2024-03-29T09:04:31;9.00;99.90
8420;DHT22;4247;48.550;8.822;2024-03-29T09:06:59;9.10;99.90
8420;DHT22;4247;48.550;8.822;2024-03-29T09:09:27;9.20;99.90
8420;DHT22;4247;48.550;8.822;2024-03-29T09:11:54;9.20;99.90
8420;DHT22;4247;48.550;8.822;2024-03-29T09:14:23;9.30;99.90
8420;DHT22;4247;48.550;8.822;2024-03-29T09:16:50;9.30;99.90
8420;DHT22;4247;48.550;8.822;2024-03-29T09:19:17;9.30;99.90
8420;DHT22;4247;48.550;8.822;2024-03-29T09:21:45;9.40;99.90
8420;DHT22;4247;48.550;8.822;2024-03-29T09:24:12;9.40;99.90
8420;DHT22;4247;48.550;8.822;2024-03-29T09:26:38;9.40;99.90
8420;DHT22;4247;48.550;8.822;2024-03-29T09:29:06;9.30;99.90
8420;DHT22;4247;48.550;8.822;2024-03-29T09:31:34;9.50;99.90
8420;DHT22;4247;48.550;8.822;2024-03-29T09:34:01;9.50;99.90
8420;DHT22;4247;48.550;8.822;2024-03-29T09:36:29;9.80;99.90
8420;DHT22;4247;48.550;8.822;2024-03-29T09:38:55;10.00;99.90
8420;DHT22;4247;48.550;8.822;2024-03-29T09:41:25;10.20;99.90
8420;DHT22;4247;48.550;8.822;2024-03-29T09:43:54;10.40;99.90
8420;DHT22;4247;48.550;8.822;2024-03-29T09:46:24;10.50;99.90
8420;DHT22;4247;48.550;8.822;2024-03-29T09:48:54;10.70;99.90
8420;DHT22;4247;48.550;8.822;2024-03-29T09:51:22;10.80;99.90
8420;DHT22;4247;48.550;8.822;2024-03-29T09:53:49;10.90;99.90
8420;DHT22;4247;48.550;8.822;2024-03-29T09:56:16;11.10;99.90
8420;DHT22;4247;48.550;8.822;2024-03-29T09:58:43;11.20;99.90
8420;DHT22;4247;48.550;8.822;2024-03-29T10:01:10;11.40;99.90
8420;DHT22;4247;48.550;8.822;2024-03-29T10:03:40;11.60;99.90
8420;DHT22;4247;48.550;8.822;2024-03-29T10:06:08;11.80;99.90
8420;DHT22;4247;48.550;8.822;2024-03-29T10:08:37;11.90;99.90
8420;DHT22;4247;48.550;8.822;2024-03-29T10:11:04;12.10;99.90
8420;DHT22;4247;48.550;8.822;2024-03-29T10:13:31;12.30;99.90
8420;DHT22;4247;48.550;8.822;2024-03-29T10:16:00;12.40;99.90
8420;DHT22;4247;48.550;8.822;2024-03-29T10:18:28;12.50;99.90
8420;DHT22;4247;48.550;8.822;2024-03-29T10:21:00;12.70;99.90
8420;DHT22;4247;48.550;8.822;2024-03-29T10:23:30;12.70;99.90
8420;DHT22;4247;48.550;8.822;2024-03-29T10:25:57;12.70;99.90
8420;DHT22;4247;48.550;8.822;2024-03-29T10:28:31;12.80;99.90
8420;DHT22;4247;48.550;8.822;2024-03-29T10:30:58;12.80;99.90
8420;DHT22;4247;48.550;8.822;2024-03-29T10:33:28;12.90;99.90
8420;DHT22;4247;48.550;8.822;2024-03-29T10:35:55;13.10;99.90
8420;DHT22;4247;48.550;8.822;2024-03-29T10:38:24;13.20;99.90
8420;DHT22;4247;48.550;8.822;2024-03-29T10:40:53;13.30;99.90
8420;DHT22;4247;48.550;8.822;2024-03-29T10:43:20;13.50;99.90
8420;DHT22;4247;48.550;8.822;2024-03-29T10:45:47;13.60;99.90
8420;DHT22;4247;48.550;8.822;2024-03-29T10:48:16;13.80;99.90
8420;DHT22;4247;48.550;8.822;2024-03-29T10:50:44;13.80;99.90
8420;DHT22;4247;48.550;8.822;2024-03-29T10:53:12;14.00;99.90
8420;DHT22;4247;48.550;8.822;2024-03-29T10:55:42;14.10;99.90
8420;DHT22;4247;48.550;8.822;2024-03-29T10:58:11;14.20;99.90
8420;DHT22;4247;48.550;8.822;2024-03-29T11:00:46;14.30;99.90
8420;DHT22;4247;48.550;8.822;2024-03-29T11:03:16;14.40;99.90
8420;DHT22;4247;48.550;8.822;2024-03-29T11:05:47;14.30;99.90
8420;DHT22;4247;48.550;8.822;2024-03-29T11:08:19;14.50;99.90
8420;DHT22;4247;48.550;8.822;2024-03-29T11:10:48;14.60;99.90
8420;DHT22;4247;48.550;8.822;2024-03-29T11:13:24;14.60;99.90
8420;DHT22;4247;48.550;8.822;2024-03-29T11:15:53;14.70;99.90
8420;DHT22;4247;48.550;8.822;2024-03-29T11:18:21;14.80;99.90
8420;DHT22;4247;48.550;8.822;2024-03-29T11:20:50;14.80;99.90
8420;DHT22;4247;48.550;8.822;2024-03-29T11:23:19;14.80;99.90
8420;DHT22;4247;48.550;8.822;2024-03-29T11:25:49;14.80;99.90
8420;DHT22;4247;48.550;8.822;2024-03-29T11:28:23;14.80;99.90
8420;DHT22;4247;48.550;8.822;2024-03-29T11:30:52;14.90;99.90
8420;DHT22;4247;48.550;8.822;2024-03-29T11:33:33;14.80;99.90
8420;DHT22;4247;48.550;8.822;2024-03-29T11:36:05;14.80;99.90
8420;DHT22;4247;48.550;8.822;2024-03-29T11:38:33;14.80;99.90
8420;DHT22;4247;48.550;8.822;2024-03-29T11:41:04;14.90;99.90
8420;DHT22;4247;48.550;8.822;2024-03-29T11:43:34;15.00;99.90
8420;DHT22;4247;48.550;8.822;2024-03-29T11:46:02;15.00;99.90
8420;DHT22;4247;48.550;8.822;2024-03-29T11:48:29;15.00;99.90
8420;DHT22;4247;48.550;8.822;2024-03-29T11:50:58;15.00;99.90
8420;DHT22;4247;48.550;8.822;2024-03-29T11:53:26;15.00;99.90
8420;DHT22;4247;48.550;8.822;2024-03-29T11:55:54;15.10;99.90
8420;DHT22;4247;48.550;8.822;2024-03-29T11:58:22;15.10;99.90
8420;DHT22;4247;48.550;8.822;2024-03-29T12:00:51;15.00;99.90
8420;DHT22;4247;48.550;8.822;2024-03-29T12:03:18;15.00;99.90
8420;DHT22;4247;48.550;8.822;2024-03-29T12:05:46;15.00;99.90
8420;DHT22;4247;48.550;8.822;2024-03-29T12:08:14;15.00;99.90
8420;DHT22;4247;48.550;8.822;2024-03-29T12:10:41;15.00;99.90
8420;DHT22;4247;48.550;8.822;2024-03-29T12:13:08;15.10;99.90
8420;DHT22;4247;48.550;8.822;2024-03-29T12:15:35;15.20;99.90
8420;DHT22;4247;48.550;8.822;2024-03-29T12:18:05;15.30;99.90
8420;DHT22;4247;48.550;8.822;2024-03-29T12:20:32;15.30;99.90
8420;DHT22;4247;48.550;8.822;2024-03-29T12:22:59;15.40;99.90
8420;DHT22;4247;48.550;8.822;2024-03-29T12:25:28;15.50;99.90
8420;DHT22;4247;48.550;8.822;2024-03-29T12:27:55;15.60;99.90
8420;DHT22;4247;48.550;8.822;2024-03-29T12:30:22;15.60;99.90
8420;DHT22;4247;48.550;8.822;2024-03-29T12:32:59;15.70;99.90
8420;DHT22;4247;48.550;8.822;2024-03-29T12:35:27;15.70;99.90
8420;DHT22;4247;48.550;8.822;2024-03-29T12:37:54;15.80;99.90
8420;DHT22;4247;48.550;8.822;2024-03-29T12:40:24;15.90;98.70
8420;DHT22;4247;48.550;8.822;2024-03-29T12:42:52;15.80;99.30
8420;DHT22;4247;48.550;8.822;2024-03-29T12:45:19;15.90;98.70
8420;DHT22;4247;48.550;8.822;2024-03-29T12:47:47;15.90;98.20
8420;DHT22;4247;48.550;8.822;2024-03-29T12:50:19;16.00;99.70
8420;DHT22;4247;48.550;8.822;2024-03-29T12:52:47;16.00;99.60
8420;DHT22;4247;48.550;8.822;2024-03-29T12:55:14;16.10;99.90
8420;DHT22;4247;48.550;8.822;2024-03-29T12:57:44;16.20;99.90
8420;DHT22;4247;48.550;8.822;2024-03-29T13:00:11;16.20;99.90
8420;DHT22;4247;48.550;8.822;2024-03-29T13:02:38;16.20;98.20
8420;DHT22;4247;48.550;8.822;2024-03-29T13:05:05;16.10;97.70
8420;DHT22;4247;48.550;8.822;2024-03-29T13:07:33;16.10;98.70
8420;DHT22;4247;48.550;8.822;2024-03-29T13:10:01;16.00;98.80
8420;DHT22;4247;48.550;8.822;2024-03-29T13:12:36;15.90;97.60
8420;DHT22;4247;48.550;8.822;2024-03-29T13:15:15;15.70;96.90
8420;DHT22;4247;48.550;8.822;2024-03-29T13:17:42;15.50;98.90
8420;DHT22;4247;48.550;8.822;2024-03-29T13:20:09;15.50;99.00
8420;DHT22;4247;48.550;8.822;2024-03-29T13:22:36;15.50;98.90
8420;DHT22;4247;48.550;8.822;2024-03-29T13:25:05;15.40;98.00
8420;DHT22;4247;48.550;8.822;2024-03-29T13:27:32;15.40;98.40
8420;DHT22;4247;48.550;8.822;2024-03-29T13:29:59;15.30;99.40
8420;DHT22;4247;48.550;8.822;2024-03-29T13:32:26;15.30;99.10
8420;DHT22;4247;48.550;8.822;2024-03-29T13:34:55;15.30;99.50
8420;DHT22;4247;48.550;8.822;2024-03-29T13:37:22;15.30;99.90
8420;DHT22;4247;48.550;8.822;2024-03-29T13:39:52;15.30;99.90
8420;DHT22;4247;48.550;8.822;2024-03-29T13:42:20;15.30;99.80
8420;DHT22;4247;48.550;8.822;2024-03-29T13:44:49;15.40;99.90
8420;DHT22;4247;48.550;8.822;2024-03-29T13:47:16;15.50;99.90
8420;DHT22;4247;48.550;8.822;2024-03-29T13:49:44;15.50;99.90
8420;DHT22;4247;48.550;8.822;2024-03-29T13:52:12;15.50;99.90
8420;DHT22;4247;48.550;8.822;2024-03-29T13:54:42;15.50;99.90
8420;DHT22;4247;48.550;8.822;2024-03-29T13:57:09;15.60;99.90
8420;DHT22;4247;48.550;8.822;2024-03-29T13:59:37;15.60;99.90
8420;DHT22;4247;48.550;8.822;2024-03-29T14:02:04;15.60;97.80
8420;DHT22;4247;48.550;8.822;2024-03-29T14:04:31;15.60;99.90
8420;DHT22;4247;48.550;8.822;2024-03-29T14:06:59;15.70;98.30
8420;DHT22;4247;48.550;8.822;2024-03-29T14:09:27;15.70;97.20
8420;DHT22;4247;48.550;8.822;2024-03-29T14:11:54;15.70;96.60
8420;DHT22;4247;48.550;8.822;2024-03-29T14:14:21;15.70;96.90
8420;DHT22;4247;48.550;8.822;2024-03-29T14:16:50;15.70;97.30
8420;DHT22;4247;48.550;8.822;2024-03-29T14:19:17;15.70;98.20
8420;DHT22;4247;48.550;8.822;2024-03-29T14:21:44;15.70;97.70
8420;DHT22;4247;48.550;8.822;2024-03-29T14:24:11;15.80;97.90
8420;DHT22;4247;48.550;8.822;2024-03-29T14:26:37;15.80;98.00
8420;DHT22;4247;48.550;8.822;2024-03-29T14:29:04;15.90;97.50
8420;DHT22;4247;48.550;8.822;2024-03-29T14:31:31;15.90;96.90
8420;DHT22;4247;48.550;8.822;2024-03-29T14:34:00;15.90;95.80
8420;DHT22;4247;48.550;8.822;2024-03-29T14:36:27;15.90;96.50
8420;DHT22;4247;48.550;8.822;2024-03-29T14:38:56;15.90;96.40
8420;DHT22;4247;48.550;8.822;2024-03-29T14:41:23;16.00;96.00
8420;DHT22;4247;48.550;8.822;2024-03-29T14:43:50;16.00;97.40
8420;DHT22;4247;48.550;8.822;2024-03-29T14:46:17;16.00;95.40
8420;DHT22;4247;48.550;8.822;2024-03-29T14:48:46;16.00;96.10
8420;DHT22;4247;48.550;8.822;2024-03-29T14:51:13;16.00;96.20
8420;DHT22;4247;48.550;8.822;2024-03-29T14:53:40;16.00;96.00
8420;DHT22;4247;48.550;8.822;2024-03-29T14:56:13;16.00;95.60
8420;DHT22;4247;48.550;8.822;2024-03-29T14:58:40;16.00;95.80
8420;DHT22;4247;48.550;8.822;2024-03-29T15:01:06;16.00;95.70
8420;DHT22;4247;48.550;8.822;2024-03-29T15:03:33;16.00;95.80
8420;DHT22;4247;48.550;8.822;2024-03-29T15:06:00;16.00;95.20
8420;DHT22;4247;48.550;8.822;2024-03-29T15:08:28;16.00;95.20
8420;DHT22;4247;48.550;8.822;2024-03-29T15:10:59;16.00;95.00
8420;DHT22;4247;48.550;8.822;2024-03-29T15:13:26;16.10;95.50
8420;DHT22;4247;48.550;8.822;2024-03-29T15:15:55;16.10;95.50
8420;DHT22;4247;48.550;8.822;2024-03-29T15:18:22;16.10;95.60
8420;DHT22;4247;48.550;8.822;2024-03-29T15:20:55;16.20;96.40
8420;DHT22;4247;48.550;8.822;2024-03-29T15:23:22;16.20;95.30
8420;DHT22;4247;48.550;8.822;2024-03-29T15:25:53;16.30;96.30
8420;DHT22;4247;48.550;8.822;2024-03-29T15:28:21;16.30;95.40
8420;DHT22;4247;48.550;8.822;2024-03-29T15:31:18;16.30;96.10
8420;DHT22;4247;48.550;8.822;2024-03-29T15:33:47;16.30;96.60
8420;DHT22;4247;48.550;8.822;2024-03-29T15:36:14;16.30;96.50
8420;DHT22;4247;48.550;8.822;2024-03-29T15:38:41;16.40;96.40
8420;DHT22;4247;48.550;8.822;2024-03-29T15:41:10;16.40;95.20
8420;DHT22;4247;48.550;8.822;2024-03-29T15:43:37;16.40;95.10
8420;DHT22;4247;48.550;8.822;2024-03-29T15:46:04;16.40;95.20
8420;DHT22;4247;48.550;8.822;2024-03-29T15:48:31;16.40;94.80
8420;DHT22;4247;48.550;8.822;2024-03-29T15:50:58;16.40;95.10
8420;DHT22;4247;48.550;8.822;2024-03-29T15:53:25;16.30;95.20
8420;DHT22;4247;48.550;8.822;2024-03-29T15:55:51;16.40;95.60
8420;DHT22;4247;48.550;8.822;2024-03-29T15:58:20;16.30;95.70
8420;DHT22;4247;48.550;8.822;2024-03-29T16:00:46;16.30;95.20
8420;DHT22;4247;48.550;8.822;2024-03-29T16:03:14;16.30;95.60
8420;DHT22;4247;48.550;8.822;2024-03-29T16:05:42;16.20;95.30
8420;DHT22;4247;48.550;8.822;2024-03-29T16:08:10;16.10;94.40
8420;DHT22;4247;48.550;8.822;2024-03-29T16:10:51;16.10;94.60
8420;DHT22;4247;48.550;8.822;2024-03-29T16:13:19;16.00;95.20
8420;DHT22;4247;48.550;8.822;2024-03-29T16:15:46;15.90;96.00